sensor_id;sensor_type;location;lat;lon;timestamp;P1;durP1;ratioP1;P2;durP2;ratioP2
59193;SDS011;44967;48.598;15.650;2022-08-01T00:01:05;2.70;;;2.50;;
59193;SDS011;44967;48.598;15.650;2022-08-01T00:03:31;4.25;;;2.92;;
59193;SDS011;44967;48.598;15.650;2022-08-01T00:05:57;3.45;;;3.15;;
59193;SDS011;44967;48.598;15.650;2022-08-01T00:08:22;4.10;;;3.00;;
59193;SDS011;44967;48.598;15.650;2022-08-01T00:10:48;3.60;;;3.03;;
59193;SDS011;44967;48.598;15.650;2022-08-01T00:13:14;3.60;;;3.20;;
59193;SDS011;44967;48.598;15.650;2022-08-01T00:15:40;2.60;;;2.40;;
59193;SDS011;44967;48.598;15.650;2022-08-01T00:18:05;3.55;;;3.25;;
59193;SDS011;44967;48.598;15.650;2022-08-01T00:20:31;3.67;;;2.80;;
59193;SDS011;44967;48.598;15.650;2022-08-01T00:22:57;3.55;;;2.70;;
59193;SDS011;44967;48.598;15.650;2022-08-01T00:25:22;4.50;;;3.10;;
59193;SDS011;44967;48.598;15.650;2022-08-01T00:27:48;3.50;;;3.20;;
59193;SDS011;44967;48.598;15.650;2022-08-01T00:30:14;3.80;;;3.03;;
59193;SDS011;44967;48.598;15.650;2022-08-01T00:32:40;3.13;;;2.92;;
59193;SDS011;44967;48.598;15.650;2022-08-01T00:35:09;3.60;;;3.30;;
59193;SDS011;44967;48.598;15.650;2022-08-01T00:37:35;4.00;;;3.13;;
59193;SDS011;44967;48.598;15.650;2022-08-01T00:40:01;3.97;;;3.67;;
59193;SDS011;44967;48.598;15.650;2022-08-01T00:42:27;4.18;;;3.33;;
59193;SDS011;44967;48.598;15.650;2022-08-01T00:44:52;4.20;;;3.47;;
59193;SDS011;44967;48.598;15.650;2022-08-01T00:47:18;3.92;;;3.63;;
59193;SDS011;44967;48.598;15.650;2022-08-01T00:49:43;3.47;;;3.17;;
59193;SDS011;44967;48.598;15.650;2022-08-01T00:52:09;4.00;;;3.10;;
59193;SDS011;44967;48.598;15.650;2022-08-01T00:54:35;3.47;;;3.10;;
59193;SDS011;44967;48.598;15.650;2022-08-01T00:57:01;4.22;;;3.78;;
59193;SDS011;44967;48.598;15.650;2022-08-01T00:59:28;3.97;;;3.63;;
59193;SDS011;44967;48.598;15.650;2022-08-01T01:01:55;4.03;;;3.20;;
59193;SDS011;44967;48.598;15.650;2022-08-01T01:04:22;4.13;;;3.75;;
59193;SDS011;44967;48.598;15.650;2022-08-01T01:07:06;4.10;;;3.70;;
59193;SDS011;44967;48.598;15.650;2022-08-01T01:10:00;3.85;;;3.45;;
59193;SDS011;44967;48.598;15.650;2022-08-01T01:12:38;3.45;;;3.13;;
59193;SDS011;44967;48.598;15.650;2022-08-01T01:15:30;3.83;;;2.97;;
59193;SDS011;44967;48.598;15.650;2022-08-01T01:18:03;3.35;;;3.15;;
59193;SDS011;44967;48.598;15.650;2022-08-01T01:20:32;3.80;;;3.30;;
59193;SDS011;44967;48.598;15.650;2022-08-01T01:31:21;4.53;;;3.33;;
59193;SDS011;44967;48.598;15.650;2022-08-01T01:33:49;4.00;;;3.70;;
59193;SDS011;44967;48.598;15.650;2022-08-01T01:36:16;4.15;;;3.72;;
59193;SDS011;44967;48.598;15.650;2022-08-01T01:38:45;3.47;;;3.20;;
59193;SDS011;44967;48.598;15.650;2022-08-01T01:41:12;4.28;;;3.40;;
59193;SDS011;44967;48.598;15.650;2022-08-01T01:43:40;3.63;;;3.33;;
59193;SDS011;44967;48.598;15.650;2022-08-01T01:46:07;3.03;;;2.83;;
59193;SDS011;44967;48.598;15.650;2022-08-01T01:48:36;3.38;;;3.05;;
59193;SDS011;44967;48.598;15.650;2022-08-01T01:51:03;3.50;;;3.30;;
59193;SDS011;44967;48.598;15.650;2022-08-01T01:53:31;3.45;;;3.13;;
59193;SDS011;44967;48.598;15.650;2022-08-01T01:56:00;3.10;;;2.90;;
59193;SDS011;44967;48.598;15.650;2022-08-01T01:58:28;4.15;;;3.10;;
59193;SDS011;44967;48.598;15.650;2022-08-01T02:00:57;3.50;;;3.20;;
59193;SDS011;44967;48.598;15.650;2022-08-01T02:03:25;3.80;;;3.15;;
59193;SDS011;44967;48.598;15.650;2022-08-01T02:05:54;3.78;;;3.42;;
59193;SDS011;44967;48.598;15.650;2022-08-01T02:08:22;4.13;;;3.20;;
59193;SDS011;44967;48.598;15.650;2022-08-01T02:10:50;3.47;;;3.13;;
59193;SDS011;44967;48.598;15.650;2022-08-01T02:13:55;3.22;;;2.97;;
59193;SDS011;44967;48.598;15.650;2022-08-01T02:16:28;3.38;;;3.10;;
59193;SDS011;44967;48.598;15.650;2022-08-01T02:18:56;3.92;;;3.53;;
59193;SDS011;44967;48.598;15.650;2022-08-01T02:24:35;3.40;;;3.10;;
59193;SDS011;44967;48.598;15.650;2022-08-01T02:27:14;3.25;;;3.05;;
59193;SDS011;44967;48.598;15.650;2022-08-01T02:29:49;3.15;;;2.95;;
59193;SDS011;44967;48.598;15.650;2022-08-01T02:32:21;3.58;;;3.28;;
59193;SDS011;44967;48.598;15.650;2022-08-01T02:34:51;3.72;;;3.00;;
59193;SDS011;44967;48.598;15.650;2022-08-01T02:37:21;3.90;;;3.30;;
59193;SDS011;44967;48.598;15.650;2022-08-01T02:39:50;4.90;;;3.70;;
59193;SDS011;44967;48.598;15.650;2022-08-01T02:42:18;3.65;;;3.35;;
59193;SDS011;44967;48.598;15.650;2022-08-01T02:44:44;2.97;;;2.78;;
59193;SDS011;44967;48.598;15.650;2022-08-01T02:47:12;3.38;;;3.08;;
59193;SDS011;44967;48.598;15.650;2022-08-01T02:49:44;3.42;;;3.05;;
59193;SDS011;44967;48.598;15.650;2022-08-01T02:52:12;3.72;;;3.30;;
59193;SDS011;44967;48.598;15.650;2022-08-01T02:54:41;3.40;;;3.20;;
59193;SDS011;44967;48.598;15.650;2022-08-01T02:57:11;4.13;;;3.00;;
59193;SDS011;44967;48.598;15.650;2022-08-01T02:59:39;4.07;;;3.20;;
59193;SDS011;44967;48.598;15.650;2022-08-01T03:02:06;3.50;;;3.13;;
59193;SDS011;44967;48.598;15.650;2022-08-01T03:04:34;4.50;;;3.55;;
59193;SDS011;44967;48.598;15.650;2022-08-01T03:07:02;4.38;;;3.40;;
59193;SDS011;44967;48.598;15.650;2022-08-01T03:09:31;3.97;;;3.53;;
59193;SDS011;44967;48.598;15.650;2022-08-01T03:12:02;4.45;;;3.40;;
59193;SDS011;44967;48.598;15.650;2022-08-01T03:14:31;3.47;;;3.13;;
59193;SDS011;44967;48.598;15.650;2022-08-01T03:17:00;3.22;;;3.03;;
59193;SDS011;44967;48.598;15.650;2022-08-01T03:19:29;3.63;;;3.28;;
59193;SDS011;44967;48.598;15.650;2022-08-01T03:21:57;5.80;;;3.63;;
59193;SDS011;44967;48.598;15.650;2022-08-01T03:24:25;3.92;;;3.38;;
59193;SDS011;44967;48.598;15.650;2022-08-01T03:26:52;3.40;;;2.72;;
59193;SDS011;44967;48.598;15.650;2022-08-01T03:29:21;3.33;;;3.03;;
59193;SDS011;44967;48.598;15.650;2022-08-01T03:31:50;3.20;;;2.92;;
59193;SDS011;44967;48.598;15.650;2022-08-01T03:34:17;3.10;;;2.80;;
59193;SDS011;44967;48.598;15.650;2022-08-01T03:36:46;4.25;;;3.30;;
59193;SDS011;44967;48.598;15.650;2022-08-01T03:39:15;3.20;;;2.90;;
59193;SDS011;44967;48.598;15.650;2022-08-01T03:41:43;6.85;;;2.63;;
59193;SDS011;44967;48.598;15.650;2022-08-01T03:44:23;3.40;;;2.88;;
59193;SDS011;44967;48.598;15.650;2022-08-01T03:46:59;3.17;;;2.97;;
59193;SDS011;44967;48.598;15.650;2022-08-01T03:51:58;3.05;;;2.75;;
59193;SDS011;44967;48.598;15.650;2022-08-01T03:54:30;3.33;;;3.03;;
59193;SDS011;44967;48.598;15.650;2022-08-01T03:56:58;2.67;;;2.47;;
59193;SDS011;44967;48.598;15.650;2022-08-01T03:59:25;3.05;;;2.85;;
59193;SDS011;44967;48.598;15.650;2022-08-01T04:01:52;2.70;;;2.50;;
59193;SDS011;44967;48.598;15.650;2022-08-01T04:04:19;3.58;;;2.83;;
59193;SDS011;44967;48.598;15.650;2022-08-01T04:06:45;2.70;;;2.50;;
59193;SDS011;44967;48.598;15.650;2022-08-01T04:09:11;3.72;;;3.42;;
59193;SDS011;44967;48.598;15.650;2022-08-01T04:11:38;2.88;;;2.67;;
59193;SDS011;44967;48.598;15.650;2022-08-01T04:14:04;3.20;;;2.90;;
59193;SDS011;44967;48.598;15.650;2022-08-01T04:16:30;3.88;;;3.20;;
59193;SDS011;44967;48.598;15.650;2022-08-01T04:18:56;3.17;;;2.90;;
59193;SDS011;44967;48.598;15.650;2022-08-01T04:21:30;3.10;;;2.70;;
59193;SDS011;44967;48.598;15.650;2022-08-01T04:23:59;2.88;;;2.67;;
59193;SDS011;44967;48.598;15.650;2022-08-01T04:26:30;3.47;;;3.15;;
59193;SDS011;44967;48.598;15.650;2022-08-01T04:29:00;2.70;;;2.50;;
59193;SDS011;44967;48.598;15.650;2022-08-01T04:31:27;3.63;;;2.78;;
59193;SDS011;44967;48.598;15.650;2022-08-01T04:33:54;2.55;;;2.35;;
59193;SDS011;44967;48.598;15.650;2022-08-01T04:36:22;3.00;;;2.80;;
59193;SDS011;44967;48.598;15.650;2022-08-01T04:38:50;3.10;;;2.80;;
59193;SDS011;44967;48.598;15.650;2022-08-01T04:41:20;3.25;;;2.72;;
59193;SDS011;44967;48.598;15.650;2022-08-01T04:43:47;3.22;;;3.03;;
59193;SDS011;44967;48.598;15.650;2022-08-01T04:46:13;3.38;;;3.08;;
59193;SDS011;44967;48.598;15.650;2022-08-01T04:48:40;2.80;;;2.60;;
59193;SDS011;44967;48.598;15.650;2022-08-01T04:51:13;3.00;;;2.80;;
59193;SDS011;44967;48.598;15.650;2022-08-01T04:53:42;3.25;;;2.95;;
59193;SDS011;44967;48.598;15.650;2022-08-01T04:56:13;3.10;;;2.63;;
59193;SDS011;44967;48.598;15.650;2022-08-01T04:58:40;3.47;;;2.88;;
59193;SDS011;44967;48.598;15.650;2022-08-01T05:01:06;2.90;;;2.70;;
59193;SDS011;44967;48.598;15.650;2022-08-01T05:03:32;2.88;;;2.60;;
59193;SDS011;44967;48.598;15.650;2022-08-01T05:05:58;2.83;;;2.63;;
59193;SDS011;44967;48.598;15.650;2022-08-01T05:08:24;4.68;;;3.35;;
59193;SDS011;44967;48.598;15.650;2022-08-01T05:10:50;3.53;;;3.22;;
59193;SDS011;44967;48.598;15.650;2022-08-01T05:13:15;3.75;;;3.40;;
59193;SDS011;44967;48.598;15.650;2022-08-01T05:15:41;3.78;;;3.47;;
59193;SDS011;44967;48.598;15.650;2022-08-01T05:18:07;3.00;;;2.80;;
59193;SDS011;44967;48.598;15.650;2022-08-01T05:20:32;3.50;;;3.20;;
59193;SDS011;44967;48.598;15.650;2022-08-01T05:22:58;3.55;;;3.25;;
59193;SDS011;44967;48.598;15.650;2022-08-01T05:25:24;3.50;;;3.20;;
59193;SDS011;44967;48.598;15.650;2022-08-01T05:27:49;3.35;;;3.05;;
59193;SDS011;44967;48.598;15.650;2022-08-01T05:30:15;4.05;;;3.05;;
59193;SDS011;44967;48.598;15.650;2022-08-01T05:32:44;3.30;;;3.00;;
59193;SDS011;44967;48.598;15.650;2022-08-01T05:35:10;3.97;;;2.90;;
59193;SDS011;44967;48.598;15.650;2022-08-01T05:37:35;4.10;;;3.42;;
59193;SDS011;44967;48.598;15.650;2022-08-01T05:40:01;3.55;;;3.30;;
59193;SDS011;44967;48.598;15.650;2022-08-01T05:42:27;3.80;;;3.50;;
59193;SDS011;44967;48.598;15.650;2022-08-01T05:44:53;3.65;;;3.30;;
59193;SDS011;44967;48.598;15.650;2022-08-01T05:47:18;4.13;;;2.95;;
59193;SDS011;44967;48.598;15.650;2022-08-01T05:49:44;3.38;;;3.08;;
59193;SDS011;44967;48.598;15.650;2022-08-01T05:52:11;3.03;;;2.83;;
59193;SDS011;44967;48.598;15.650;2022-08-01T05:54:37;3.20;;;3.00;;
59193;SDS011;44967;48.598;15.650;2022-08-01T05:57:03;3.45;;;3.15;;
59193;SDS011;44967;48.598;15.650;2022-08-01T05:59:29;4.15;;;3.40;;
59193;SDS011;44967;48.598;15.650;2022-08-01T06:01:55;4.05;;;3.30;;
59193;SDS011;44967;48.598;15.650;2022-08-01T06:04:20;5.30;;;3.50;;
59193;SDS011;44967;48.598;15.650;2022-08-01T06:06:47;3.58;;;3.28;;
59193;SDS011;44967;48.598;15.650;2022-08-01T06:09:13;3.63;;;3.17;;
59193;SDS011;44967;48.598;15.650;2022-08-01T06:11:38;3.53;;;3.22;;
59193;SDS011;44967;48.598;15.650;2022-08-01T06:14:04;3.15;;;2.95;;
59193;SDS011;44967;48.598;15.650;2022-08-01T06:16:30;3.90;;;2.92;;
59193;SDS011;44967;48.598;15.650;2022-08-01T06:18:55;4.60;;;3.00;;
59193;SDS011;44967;48.598;15.650;2022-08-01T06:21:22;3.10;;;2.80;;
59193;SDS011;44967;48.598;15.650;2022-08-01T06:23:47;2.88;;;2.65;;
59193;SDS011;44967;48.598;15.650;2022-08-01T06:26:13;2.80;;;2.60;;
59193;SDS011;44967;48.598;15.650;2022-08-01T06:28:39;2.80;;;2.55;;
59193;SDS011;44967;48.598;15.650;2022-08-01T06:31:04;2.30;;;2.10;;
59193;SDS011;44967;48.598;15.650;2022-08-01T06:33:30;3.38;;;2.60;;
59193;SDS011;44967;48.598;15.650;2022-08-01T06:35:56;2.60;;;2.40;;
59193;SDS011;44967;48.598;15.650;2022-08-01T06:38:22;2.50;;;2.30;;
59193;SDS011;44967;48.598;15.650;2022-08-01T06:40:49;3.00;;;2.70;;
59193;SDS011;44967;48.598;15.650;2022-08-01T06:43:15;2.85;;;2.65;;
59193;SDS011;44967;48.598;15.650;2022-08-01T06:45:41;2.67;;;2.33;;
59193;SDS011;44967;48.598;15.650;2022-08-01T06:48:07;2.75;;;2.55;;
59193;SDS011;44967;48.598;15.650;2022-08-01T06:50:33;2.92;;;2.40;;
59193;SDS011;44967;48.598;15.650;2022-08-01T06:53:00;2.92;;;2.58;;
59193;SDS011;44967;48.598;15.650;2022-08-01T06:55:26;2.95;;;2.30;;
59193;SDS011;44967;48.598;15.650;2022-08-01T06:57:52;3.88;;;2.75;;
59193;SDS011;44967;48.598;15.650;2022-08-01T07:00:19;2.80;;;2.58;;
59193;SDS011;44967;48.598;15.650;2022-08-01T07:02:50;3.20;;;2.42;;
59193;SDS011;44967;48.598;15.650;2022-08-01T07:05:21;2.10;;;2.00;;
59193;SDS011;44967;48.598;15.650;2022-08-01T07:07:47;4.03;;;2.53;;
59193;SDS011;44967;48.598;15.650;2022-08-01T07:10:13;2.40;;;2.20;;
59193;SDS011;44967;48.598;15.650;2022-08-01T07:12:39;2.35;;;2.15;;
59193;SDS011;44967;48.598;15.650;2022-08-01T07:15:09;3.42;;;2.42;;
59193;SDS011;44967;48.598;15.650;2022-08-01T07:17:36;3.05;;;2.83;;
59193;SDS011;44967;48.598;15.650;2022-08-01T07:20:04;3.80;;;2.58;;
59193;SDS011;44967;48.598;15.650;2022-08-01T07:22:31;2.72;;;2.53;;
59193;SDS011;44967;48.598;15.650;2022-08-01T07:24:56;2.63;;;2.42;;
59193;SDS011;44967;48.598;15.650;2022-08-01T07:27:22;2.88;;;2.55;;
59193;SDS011;44967;48.598;15.650;2022-08-01T07:29:48;2.65;;;2.45;;
59193;SDS011;44967;48.598;15.650;2022-08-01T07:32:13;3.08;;;2.47;;
59193;SDS011;44967;48.598;15.650;2022-08-01T07:34:39;2.97;;;2.60;;
59193;SDS011;44967;48.598;15.650;2022-08-01T07:37:05;2.53;;;2.33;;
59193;SDS011;44967;48.598;15.650;2022-08-01T07:39:30;2.88;;;2.67;;
59193;SDS011;44967;48.598;15.650;2022-08-01T07:41:56;2.70;;;2.50;;
59193;SDS011;44967;48.598;15.650;2022-08-01T07:44:22;2.83;;;2.63;;
59193;SDS011;44967;48.598;15.650;2022-08-01T07:46:49;2.30;;;2.20;;
59193;SDS011;44967;48.598;15.650;2022-08-01T07:49:14;2.45;;;2.22;;
59193;SDS011;44967;48.598;15.650;2022-08-01T07:51:40;3.70;;;2.63;;
59193;SDS011;44967;48.598;15.650;2022-08-01T07:54:06;2.50;;;2.30;;
59193;SDS011;44967;48.598;15.650;2022-08-01T07:56:32;3.70;;;1.95;;
59193;SDS011;44967;48.598;15.650;2022-08-01T07:58:58;2.45;;;2.10;;
59193;SDS011;44967;48.598;15.650;2022-08-01T08:01:24;2.10;;;1.88;;
59193;SDS011;44967;48.598;15.650;2022-08-01T08:03:49;2.97;;;2.10;;
59193;SDS011;44967;48.598;15.650;2022-08-01T08:06:15;2.75;;;1.80;;
59193;SDS011;44967;48.598;15.650;2022-08-01T08:08:40;1.80;;;1.70;;
59193;SDS011;44967;48.598;15.650;2022-08-01T08:11:06;3.38;;;1.80;;
59193;SDS011;44967;48.598;15.650;2022-08-01T08:13:32;2.83;;;2.03;;
59193;SDS011;44967;48.598;15.650;2022-08-01T08:15:58;2.33;;;2.00;;
59193;SDS011;44967;48.598;15.650;2022-08-01T08:18:25;2.00;;;1.90;;
59193;SDS011;44967;48.598;15.650;2022-08-01T08:20:51;2.38;;;1.80;;
59193;SDS011;44967;48.598;15.650;2022-08-01T08:23:17;1.67;;;1.30;;
59193;SDS011;44967;48.598;15.650;2022-08-01T08:26:04;1.33;;;1.23;;
59193;SDS011;44967;48.598;15.650;2022-08-01T08:28:29;1.55;;;1.45;;
59193;SDS011;44967;48.598;15.650;2022-08-01T08:30:55;1.50;;;1.40;;
59193;SDS011;44967;48.598;15.650;2022-08-01T08:33:21;1.90;;;1.70;;
59193;SDS011;44967;48.598;15.650;2022-08-01T08:35:47;4.25;;;1.48;;
59193;SDS011;44967;48.598;15.650;2022-08-01T08:38:12;1.88;;;1.42;;
59193;SDS011;44967;48.598;15.650;2022-08-01T08:40:38;2.72;;;1.77;;
59193;SDS011;44967;48.598;15.650;2022-08-01T08:43:05;2.35;;;1.50;;
59193;SDS011;44967;48.598;15.650;2022-08-01T08:45:31;1.20;;;1.20;;
59193;SDS011;44967;48.598;15.650;2022-08-01T08:47:57;1.60;;;1.50;;
59193;SDS011;44967;48.598;15.650;2022-08-01T08:50:24;1.67;;;1.58;;
59193;SDS011;44967;48.598;15.650;2022-08-01T08:52:52;1.67;;;1.58;;
59193;SDS011;44967;48.598;15.650;2022-08-01T08:55:20;1.90;;;1.70;;
59193;SDS011;44967;48.598;15.650;2022-08-01T08:57:46;2.05;;;1.50;;
59193;SDS011;44967;48.598;15.650;2022-08-01T09:00:12;1.60;;;1.50;;
59193;SDS011;44967;48.598;15.650;2022-08-01T09:02:43;1.92;;;1.75;;
59193;SDS011;44967;48.598;15.650;2022-08-01T09:05:10;1.80;;;1.70;;
59193;SDS011;44967;48.598;15.650;2022-08-01T09:07:37;2.25;;;2.05;;
59193;SDS011;44967;48.598;15.650;2022-08-01T09:10:03;2.88;;;1.77;;
59193;SDS011;44967;48.598;15.650;2022-08-01T09:12:30;2.42;;;1.60;;
59193;SDS011;44967;48.598;15.650;2022-08-01T09:14:56;2.42;;;1.80;;
59193;SDS011;44967;48.598;15.650;2022-08-01T09:17:22;1.65;;;1.55;;
59193;SDS011;44967;48.598;15.650;2022-08-01T09:19:52;1.60;;;1.50;;
59193;SDS011;44967;48.598;15.650;2022-08-01T09:22:23;1.60;;;1.50;;
59193;SDS011;44967;48.598;15.650;2022-08-01T09:24:56;3.08;;;1.90;;
59193;SDS011;44967;48.598;15.650;2022-08-01T09:27:24;1.70;;;1.60;;
59193;SDS011;44967;48.598;15.650;2022-08-01T09:29:51;2.25;;;1.75;;
59193;SDS011;44967;48.598;15.650;2022-08-01T09:32:18;3.53;;;1.63;;
59193;SDS011;44967;48.598;15.650;2022-08-01T09:34:45;1.90;;;1.65;;
59193;SDS011;44967;48.598;15.650;2022-08-01T09:37:11;1.50;;;1.40;;
59193;SDS011;44967;48.598;15.650;2022-08-01T09:39:42;2.00;;;1.70;;
59193;SDS011;44967;48.598;15.650;2022-08-01T09:42:23;2.42;;;1.73;;
59193;SDS011;44967;48.598;15.650;2022-08-01T09:44:52;2.15;;;2.05;;
59193;SDS011;44967;48.598;15.650;2022-08-01T09:47:19;4.60;;;2.28;;
59193;SDS011;44967;48.598;15.650;2022-08-01T09:49:53;2.10;;;1.50;;
59193;SDS011;44967;48.598;15.650;2022-08-01T09:52:21;2.90;;;1.80;;
59193;SDS011;44967;48.598;15.650;2022-08-01T09:54:52;2.45;;;1.70;;
59193;SDS011;44967;48.598;15.650;2022-08-01T09:57:25;1.92;;;1.73;;
59193;SDS011;44967;48.598;15.650;2022-08-01T09:59:53;3.17;;;2.20;;
59193;SDS011;44967;48.598;15.650;2022-08-01T10:02:31;1.83;;;1.73;;
59193;SDS011;44967;48.598;15.650;2022-08-01T10:07:24;3.38;;;1.65;;
59193;SDS011;44967;48.598;15.650;2022-08-01T10:09:50;1.58;;;1.45;;
59193;SDS011;44967;48.598;15.650;2022-08-01T10:12:17;3.50;;;1.50;;
59193;SDS011;44967;48.598;15.650;2022-08-01T10:14:47;3.47;;;1.90;;
59193;SDS011;44967;48.598;15.650;2022-08-01T10:17:20;2.58;;;1.75;;
59193;SDS011;44967;48.598;15.650;2022-08-01T10:19:50;2.05;;;1.83;;
59193;SDS011;44967;48.598;15.650;2022-08-01T10:22:19;1.90;;;1.73;;
59193;SDS011;44967;48.598;15.650;2022-08-01T10:24:50;1.98;;;1.83;;
59193;SDS011;44967;48.598;15.650;2022-08-01T10:27:20;1.60;;;1.50;;
59193;SDS011;44967;48.598;15.650;2022-08-01T10:29:57;2.08;;;1.77;;
59193;SDS011;44967;48.598;15.650;2022-08-01T10:32:34;2.53;;;1.60;;
59193;SDS011;44967;48.598;15.650;2022-08-01T10:35:00;1.83;;;1.73;;
59193;SDS011;44967;48.598;15.650;2022-08-01T10:37:28;2.97;;;1.50;;
59193;SDS011;44967;48.598;15.650;2022-08-01T10:39:54;1.95;;;1.85;;
59193;SDS011;44967;48.598;15.650;2022-08-01T10:42:20;2.30;;;1.75;;
59193;SDS011;44967;48.598;15.650;2022-08-01T10:44:46;2.38;;;1.60;;
59193;SDS011;44967;48.598;15.650;2022-08-01T10:47:13;2.40;;;1.63;;
59193;SDS011;44967;48.598;15.650;2022-08-01T10:49:45;1.85;;;1.75;;
59193;SDS011;44967;48.598;15.650;2022-08-01T10:54:45;2.67;;;1.58;;
59193;SDS011;44967;48.598;15.650;2022-08-01T10:57:12;1.80;;;1.70;;
59193;SDS011;44967;48.598;15.650;2022-08-01T10:59:51;2.63;;;1.80;;
59193;SDS011;44967;48.598;15.650;2022-08-01T11:02:28;2.30;;;1.85;;
59193;SDS011;44967;48.598;15.650;2022-08-01T11:05:09;8.75;;;3.70;;
59193;SDS011;44967;48.598;15.650;2022-08-01T11:07:47;4.55;;;2.60;;
59193;SDS011;44967;48.598;15.650;2022-08-01T11:10:19;3.75;;;2.80;;
59193;SDS011;44967;48.598;15.650;2022-08-01T11:13:01;3.22;;;2.60;;
59193;SDS011;44967;48.598;15.650;2022-08-01T11:15:30;7.65;;;3.35;;
59193;SDS011;44967;48.598;15.650;2022-08-01T11:17:56;3.58;;;2.90;;
59193;SDS011;44967;48.598;15.650;2022-08-01T11:20:24;3.50;;;2.10;;
59193;SDS011;44967;48.598;15.650;2022-08-01T11:23:33;2.95;;;2.20;;
59193;SDS011;44967;48.598;15.650;2022-08-01T11:30:39;3.33;;;2.35;;
59193;SDS011;44967;48.598;15.650;2022-08-01T11:33:09;2.80;;;2.50;;
59193;SDS011;44967;48.598;15.650;2022-08-01T11:35:35;3.05;;;2.47;;
59193;SDS011;44967;48.598;15.650;2022-08-01T11:38:36;3.00;;;2.50;;
59193;SDS011;44967;48.598;15.650;2022-08-01T11:44:13;2.97;;;2.42;;
59193;SDS011;44967;48.598;15.650;2022-08-01T11:57:10;4.32;;;2.30;;
59193;SDS011;44967;48.598;15.650;2022-08-01T12:02:22;1.88;;;1.48;;
59193;SDS011;44967;48.598;15.650;2022-08-01T12:07:18;2.33;;;1.60;;
59193;SDS011;44967;48.598;15.650;2022-08-01T12:09:44;2.38;;;1.60;;
59193;SDS011;44967;48.598;15.650;2022-08-01T12:12:14;3.10;;;1.60;;
59193;SDS011;44967;48.598;15.650;2022-08-01T12:14:42;1.88;;;1.70;;
59193;SDS011;44967;48.598;15.650;2022-08-01T12:17:08;1.73;;;1.45;;
59193;SDS011;44967;48.598;15.650;2022-08-01T12:19:34;2.33;;;1.95;;
59193;SDS011;44967;48.598;15.650;2022-08-01T12:22:21;3.22;;;1.80;;
59193;SDS011;44967;48.598;15.650;2022-08-01T12:24:48;1.92;;;1.63;;
59193;SDS011;44967;48.598;15.650;2022-08-01T12:27:23;3.47;;;1.70;;
59193;SDS011;44967;48.598;15.650;2022-08-01T12:29:52;1.90;;;1.75;;
59193;SDS011;44967;48.598;15.650;2022-08-01T12:32:23;2.47;;;1.80;;
59193;SDS011;44967;48.598;15.650;2022-08-01T12:34:54;1.55;;;1.45;;
59193;SDS011;44967;48.598;15.650;2022-08-01T12:37:22;2.67;;;1.73;;
59193;SDS011;44967;48.598;15.650;2022-08-01T12:39:48;2.63;;;1.60;;
59193;SDS011;44967;48.598;15.650;2022-08-01T12:42:14;1.65;;;1.45;;
59193;SDS011;44967;48.598;15.650;2022-08-01T12:44:42;1.73;;;1.63;;
59193;SDS011;44967;48.598;15.650;2022-08-01T12:47:09;2.35;;;1.58;;
59193;SDS011;44967;48.598;15.650;2022-08-01T12:49:36;2.35;;;1.23;;
59193;SDS011;44967;48.598;15.650;2022-08-01T12:52:03;1.13;;;1.13;;
59193;SDS011;44967;48.598;15.650;2022-08-01T12:54:29;2.28;;;1.60;;
59193;SDS011;44967;48.598;15.650;2022-08-01T12:56:55;1.30;;;1.23;;
59193;SDS011;44967;48.598;15.650;2022-08-01T12:59:23;1.40;;;1.30;;
59193;SDS011;44967;48.598;15.650;2022-08-01T13:01:53;2.50;;;1.40;;
59193;SDS011;44967;48.598;15.650;2022-08-01T13:04:20;2.75;;;1.45;;
59193;SDS011;44967;48.598;15.650;2022-08-01T13:06:47;1.65;;;1.45;;
59193;SDS011;44967;48.598;15.650;2022-08-01T13:09:17;2.83;;;1.55;;
59193;SDS011;44967;48.598;15.650;2022-08-01T13:11:44;1.83;;;1.55;;
59193;SDS011;44967;48.598;15.650;2022-08-01T13:14:11;1.70;;;1.55;;
59193;SDS011;44967;48.598;15.650;2022-08-01T13:16:52;1.70;;;1.60;;
59193;SDS011;44967;48.598;15.650;2022-08-01T13:19:17;2.85;;;1.55;;
59193;SDS011;44967;48.598;15.650;2022-08-01T13:21:53;1.98;;;1.70;;
59193;SDS011;44967;48.598;15.650;2022-08-01T13:24:28;1.58;;;1.42;;
59193;SDS011;44967;48.598;15.650;2022-08-01T13:26:55;2.17;;;1.75;;
59193;SDS011;44967;48.598;15.650;2022-08-01T13:29:29;3.33;;;1.85;;
59193;SDS011;44967;48.598;15.650;2022-08-01T13:32:21;1.75;;;1.65;;
59193;SDS011;44967;48.598;15.650;2022-08-01T13:34:47;2.00;;;1.42;;
59193;SDS011;44967;48.598;15.650;2022-08-01T13:37:14;8.02;;;1.90;;
59193;SDS011;44967;48.598;15.650;2022-08-01T13:39:43;1.45;;;1.35;;
59193;SDS011;44967;48.598;15.650;2022-08-01T13:42:13;3.13;;;1.77;;
59193;SDS011;44967;48.598;15.650;2022-08-01T13:44:41;2.40;;;1.63;;
59193;SDS011;44967;48.598;15.650;2022-08-01T13:47:07;1.95;;;1.80;;
59193;SDS011;44967;48.598;15.650;2022-08-01T13:49:33;1.95;;;1.70;;
59193;SDS011;44967;48.598;15.650;2022-08-01T13:51:59;1.50;;;1.40;;
59193;SDS011;44967;48.598;15.650;2022-08-01T13:54:25;1.77;;;1.67;;
59193;SDS011;44967;48.598;15.650;2022-08-01T13:56:52;1.50;;;1.40;;
59193;SDS011;44967;48.598;15.650;2022-08-01T13:59:18;1.52;;;1.40;;
59193;SDS011;44967;48.598;15.650;2022-08-01T14:01:44;1.73;;;1.60;;
59193;SDS011;44967;48.598;15.650;2022-08-01T14:04:11;1.25;;;1.20;;
59193;SDS011;44967;48.598;15.650;2022-08-01T14:06:37;2.80;;;1.75;;
59193;SDS011;44967;48.598;15.650;2022-08-01T14:09:03;1.35;;;1.25;;
59193;SDS011;44967;48.598;15.650;2022-08-01T14:11:29;1.52;;;1.42;;
59193;SDS011;44967;48.598;15.650;2022-08-01T14:13:55;2.67;;;1.48;;
59193;SDS011;44967;48.598;15.650;2022-08-01T14:16:21;1.75;;;1.52;;
59193;SDS011;44967;48.598;15.650;2022-08-01T14:18:47;1.80;;;1.63;;
59193;SDS011;44967;48.598;15.650;2022-08-01T14:21:12;1.73;;;1.42;;
59193;SDS011;44967;48.598;15.650;2022-08-01T14:23:40;1.80;;;1.70;;
59193;SDS011;44967;48.598;15.650;2022-08-01T14:26:06;2.17;;;1.50;;
59193;SDS011;44967;48.598;15.650;2022-08-01T14:28:31;1.83;;;1.35;;
59193;SDS011;44967;48.598;15.650;2022-08-01T14:30:58;1.30;;;1.20;;
59193;SDS011;44967;48.598;15.650;2022-08-01T14:33:24;1.08;;;0.90;;
59193;SDS011;44967;48.598;15.650;2022-08-01T14:35:52;2.17;;;0.85;;
59193;SDS011;44967;48.598;15.650;2022-08-01T14:38:18;0.55;;;0.55;;
59193;SDS011;44967;48.598;15.650;2022-08-01T14:40:43;1.17;;;0.80;;
59193;SDS011;44967;48.598;15.650;2022-08-01T14:43:12;1.13;;;0.70;;
59193;SDS011;44967;48.598;15.650;2022-08-01T14:45:38;1.95;;;0.73;;
59193;SDS011;44967;48.598;15.650;2022-08-01T14:48:04;1.10;;;1.00;;
59193;SDS011;44967;48.598;15.650;2022-08-01T14:50:30;2.05;;;1.20;;
59193;SDS011;44967;48.598;15.650;2022-08-01T14:52:56;1.00;;;0.80;;
59193;SDS011;44967;48.598;15.650;2022-08-01T14:55:22;1.27;;;1.00;;
59193;SDS011;44967;48.598;15.650;2022-08-01T14:57:50;1.10;;;1.00;;
59193;SDS011;44967;48.598;15.650;2022-08-01T15:00:16;1.10;;;1.00;;
59193;SDS011;44967;48.598;15.650;2022-08-01T15:02:42;2.20;;;1.05;;
59193;SDS011;44967;48.598;15.650;2022-08-01T15:05:08;2.15;;;1.33;;
59193;SDS011;44967;48.598;15.650;2022-08-01T15:07:38;1.27;;;1.20;;
59193;SDS011;44967;48.598;15.650;2022-08-01T15:10:04;1.08;;;1.08;;
59193;SDS011;44967;48.598;15.650;2022-08-01T15:12:30;2.30;;;1.35;;
59193;SDS011;44967;48.598;15.650;2022-08-01T15:14:57;5.05;;;1.40;;
59193;SDS011;44967;48.598;15.650;2022-08-01T15:17:29;1.50;;;1.40;;
59193;SDS011;44967;48.598;15.650;2022-08-01T15:19:58;2.60;;;1.30;;
59193;SDS011;44967;48.598;15.650;2022-08-01T15:22:28;1.65;;;1.55;;